RYR2CW EPMO-LBSF
Flight info
| Callsign | RYR2CW |
|---|---|
| Flight time | N/A |
| Altitude | 37000 |
| Route | XIMBA DCT OMAVA DCT ROBTU DCT BADOR DCT TIMUR N181 GOL |
| Aircraft | B38M/M-SADE3FGILRWY/SB1 |
Departure
| Time | 2026-04-25 07:13 |
|---|---|
| Airport | Warsaw Modlin Airport (EPMO) |
Arrival
| Time | N/A |
|---|---|
| Airport | Sofia Airport (LBSF) |
| Time | Latitude | Longitude | Altitude | Speed | Heading |
|---|---|---|---|---|---|
| 2026-04-25 06:54 | 52.44722 | 20.65019 | 340 ft | 0 kts | 206° |
| 2026-04-25 07:04 | 52.44724 | 20.65021 | 340 ft | 3 kts | 206° |
| 2026-04-25 07:04 | 52.44749 | 20.65033 | 338 ft | 4 kts | 180° |
| 2026-04-25 07:05 | 52.44767 | 20.65023 | 335 ft | 4 kts | 109° |
| 2026-04-25 07:05 | 52.44768 | 20.65009 | 338 ft | 0 kts | 81° |
| 2026-04-25 07:08 | 52.44769 | 20.65019 | 335 ft | 3 kts | 82° |
| 2026-04-25 07:08 | 52.44774 | 20.65079 | 340 ft | 8 kts | 81° |
| 2026-04-25 07:09 | 52.44787 | 20.65212 | 340 ft | 15 kts | 82° |
| 2026-04-25 07:09 | 52.44804 | 20.65396 | 340 ft | 17 kts | 81° |
| 2026-04-25 07:09 | 52.44822 | 20.65584 | 337 ft | 18 kts | 83° |
| 2026-04-25 07:09 | 52.44838 | 20.65783 | 335 ft | 18 kts | 81° |
| 2026-04-25 07:10 | 52.44858 | 20.65995 | 340 ft | 20 kts | 81° |
| 2026-04-25 07:10 | 52.44880 | 20.66226 | 335 ft | 22 kts | 81° |
| 2026-04-25 07:10 | 52.44901 | 20.66448 | 341 ft | 18 kts | 81° |
| 2026-04-25 07:10 | 52.44921 | 20.66663 | 341 ft | 20 kts | 81° |
| 2026-04-25 07:11 | 52.44942 | 20.66883 | 339 ft | 16 kts | 81° |
| 2026-04-25 07:11 | 52.44960 | 20.67044 | 341 ft | 12 kts | 62° |
| 2026-04-25 07:11 | 52.45039 | 20.67072 | 336 ft | 13 kts | 351° |
| 2026-04-25 07:11 | 52.45137 | 20.67047 | 340 ft | 15 kts | 351° |
| 2026-04-25 07:12 | 52.45244 | 20.67001 | 340 ft | 16 kts | 341° |
| 2026-04-25 07:12 | 52.45271 | 20.66770 | 339 ft | 21 kts | 261° |
| 2026-04-25 07:12 | 52.45219 | 20.66214 | 340 ft | 88 kts | 261° |
| 2026-04-25 07:13 | 52.45096 | 20.64831 | 409 ft | 148 kts | 263° |
| 2026-04-25 07:13 | 52.44857 | 20.63069 | 1032 ft | 166 kts | 253° |
| 2026-04-25 07:13 | 52.44558 | 20.61273 | 2011 ft | 166 kts | 265° |
| 2026-04-25 07:13 | 52.44420 | 20.59333 | 2853 ft | 181 kts | 268° |
| 2026-04-25 07:14 | 52.44256 | 20.57259 | 3879 ft | 185 kts | 262° |
| 2026-04-25 07:14 | 52.43572 | 20.55265 | 4394 ft | 221 kts | 230° |
| 2026-04-25 07:14 | 52.42153 | 20.54047 | 4426 ft | 245 kts | 197° |
| 2026-04-25 07:14 | 52.40367 | 20.54258 | 4554 ft | 272 kts | 170° |
| 2026-04-25 07:15 | 52.38516 | 20.55041 | 4670 ft | 278 kts | 172° |
| 2026-04-25 07:15 | 52.36620 | 20.55806 | 4815 ft | 281 kts | 172° |
| 2026-04-25 07:15 | 52.34710 | 20.56565 | 4944 ft | 283 kts | 172° |
| 2026-04-25 07:15 | 52.32794 | 20.57317 | 5005 ft | 284 kts | 172° |
| 2026-04-25 07:16 | 52.30882 | 20.58059 | 5289 ft | 285 kts | 172° |
| 2026-04-25 07:16 | 52.28954 | 20.58811 | 6407 ft | 287 kts | 172° |
| 2026-04-25 07:16 | 52.26977 | 20.59583 | 7360 ft | 295 kts | 172° |
| 2026-04-25 07:16 | 52.24956 | 20.60367 | 8354 ft | 301 kts | 172° |
| 2026-04-25 07:17 | 52.22897 | 20.61164 | 9334 ft | 307 kts | 171° |
| 2026-04-25 07:17 | 52.20794 | 20.61977 | 10235 ft | 315 kts | 171° |
| 2026-04-25 07:17 | 52.18621 | 20.62802 | 10837 ft | 331 kts | 171° |
| 2026-04-25 07:17 | 52.16323 | 20.63663 | 11479 ft | 344 kts | 171° |
| 2026-04-25 07:18 | 52.13947 | 20.64558 | 12228 ft | 353 kts | 171° |
| 2026-04-25 07:18 | 52.11536 | 20.65480 | 13109 ft | 358 kts | 171° |
| 2026-04-25 07:18 | 52.09116 | 20.66412 | 13903 ft | 364 kts | 171° |
| 2026-04-25 07:18 | 52.06634 | 20.67364 | 14672 ft | 367 kts | 171° |
| 2026-04-25 07:19 | 52.04140 | 20.68324 | 15445 ft | 371 kts | 171° |
| 2026-04-25 07:19 | 52.01606 | 20.69297 | 16199 ft | 375 kts | 171° |
| 2026-04-25 07:19 | 51.99056 | 20.70275 | 16950 ft | 378 kts | 171° |
| 2026-04-25 07:19 | 51.96472 | 20.71266 | 17694 ft | 382 kts | 171° |
| 2026-04-25 07:20 | 51.93897 | 20.72251 | 18365 ft | 386 kts | 171° |
| 2026-04-25 07:20 | 51.91262 | 20.73258 | 18965 ft | 389 kts | 171° |
| 2026-04-25 07:20 | 51.88610 | 20.74269 | 19552 ft | 392 kts | 171° |
| 2026-04-25 07:20 | 51.85942 | 20.75286 | 20197 ft | 394 kts | 171° |
| 2026-04-25 07:21 | 51.83259 | 20.76311 | 20778 ft | 398 kts | 171° |
| 2026-04-25 07:21 | 51.80553 | 20.77342 | 21352 ft | 401 kts | 171° |
| 2026-04-25 07:21 | 51.77858 | 20.78366 | 21924 ft | 404 kts | 171° |
| 2026-04-25 07:21 | 51.75103 | 20.79412 | 22482 ft | 408 kts | 172° |
| 2026-04-25 07:22 | 51.72331 | 20.80465 | 23037 ft | 411 kts | 172° |
| 2026-04-25 07:22 | 51.69517 | 20.81530 | 23550 ft | 415 kts | 172° |
| 2026-04-25 07:22 | 51.66697 | 20.82594 | 24034 ft | 417 kts | 172° |
| 2026-04-25 07:22 | 51.63862 | 20.83665 | 24504 ft | 420 kts | 172° |
| 2026-04-25 07:23 | 51.61007 | 20.84743 | 24969 ft | 422 kts | 172° |
| 2026-04-25 07:23 | 51.58170 | 20.85813 | 25424 ft | 424 kts | 172° |
| 2026-04-25 07:23 | 51.55282 | 20.86900 | 25878 ft | 426 kts | 172° |
| 2026-04-25 07:23 | 51.52379 | 20.87990 | 26326 ft | 429 kts | 172° |
| 2026-04-25 07:24 | 51.49455 | 20.89089 | 26763 ft | 431 kts | 172° |
| 2026-04-25 07:24 | 51.46554 | 20.90177 | 27208 ft | 433 kts | 172° |
| 2026-04-25 07:24 | 51.43605 | 20.91282 | 27616 ft | 436 kts | 172° |
| 2026-04-25 07:24 | 51.40635 | 20.92392 | 28031 ft | 438 kts | 172° |
| 2026-04-25 07:25 | 51.37648 | 20.93508 | 28433 ft | 440 kts | 172° |
| 2026-04-25 07:25 | 51.34688 | 20.94613 | 28800 ft | 442 kts | 172° |
| 2026-04-25 07:25 | 51.31669 | 20.95738 | 29182 ft | 445 kts | 172° |
| 2026-04-25 07:25 | 51.28642 | 20.96865 | 29577 ft | 447 kts | 172° |
| 2026-04-25 07:26 | 51.25636 | 20.97982 | 29949 ft | 449 kts | 172° |
| 2026-04-25 07:26 | 51.22572 | 20.99120 | 30271 ft | 452 kts | 172° |
| 2026-04-25 07:26 | 51.19500 | 21.00259 | 30562 ft | 454 kts | 172° |
| 2026-04-25 07:26 | 51.16408 | 21.01405 | 30850 ft | 457 kts | 172° |
| 2026-04-25 07:27 | 51.13305 | 21.02553 | 31146 ft | 459 kts | 172° |
| 2026-04-25 07:27 | 51.10187 | 21.03705 | 31431 ft | 461 kts | 172° |
| 2026-04-25 07:27 | 51.07045 | 21.04867 | 31662 ft | 465 kts | 173° |
| 2026-04-25 07:27 | 51.03902 | 21.06023 | 31833 ft | 469 kts | 173° |
| 2026-04-25 07:28 | 51.00705 | 21.07198 | 32157 ft | 471 kts | 173° |
| 2026-04-25 07:28 | 50.98583 | 21.07980 | 32316 ft | 473 kts | 173° |